Rumley, Texas
Current Conditions -  °F | °C
As of 10:35 AM on Friday 19 Dec 2014 (Local Time) from KLZZ Reporting Station
Overcast Overcast  
Wind Chill:   Ceiling: 400
Heat Index:   Visibility: 7mi
Dew Point:   Wind: 7mph
Humidity: 96%   Direction: 20°NNE
Pressure: 30.16"   Gusts: NA
Location:  31.0791°N, 98.0007°W
Report Text: KLZZ 191635Z AUTO 02006KT 7SM OVC004 09/08 A3016 RMK AO2 T00890083
Loading
Personal Weather Stations






























Interactive Weather Map New forecast layout! Learn more

10-Day Weather Forecast

Advertisements
Track Severe Weather on mobile